createdAt,value
2023-03-27T00:01:43.061Z,5.80
2023-03-27T00:06:45.614Z,5.90
2023-03-27T00:11:48.170Z,5.90
2023-03-27T00:16:51.156Z,5.90
2023-03-27T00:21:53.636Z,5.80
2023-03-27T00:26:55.716Z,5.80
2023-03-27T00:31:57.491Z,5.90
2023-03-27T00:36:59.426Z,5.80
2023-03-27T00:42:01.329Z,5.80
2023-03-27T00:47:04.572Z,5.90
2023-03-27T00:52:07.109Z,5.80
2023-03-27T00:57:14.230Z,5.80
2023-03-27T01:02:17.925Z,5.80
2023-03-27T01:07:20.211Z,5.80
2023-03-27T01:12:48.933Z,5.80
2023-03-27T01:18:00.853Z,5.80
2023-03-27T01:23:59.892Z,5.80
2023-03-27T01:29:25.323Z,5.80
2023-03-27T01:35:08.661Z,5.70
2023-03-27T01:40:32.121Z,5.70
2023-03-27T01:45:42.164Z,5.70
2023-03-27T01:51:09.877Z,5.70
2023-03-27T01:56:37.422Z,5.60
2023-03-27T02:01:44.400Z,5.60
2023-03-27T02:06:51.181Z,5.60
2023-03-27T02:12:11.877Z,5.70
2023-03-27T02:17:15.037Z,5.70
2023-03-27T02:22:17.209Z,5.70
2023-03-27T02:27:29.716Z,5.70
2023-03-27T02:32:54.036Z,5.60
2023-03-27T02:38:19.990Z,5.60
2023-03-27T02:43:31.102Z,5.70
2023-03-27T02:48:57.109Z,5.50
2023-03-27T02:54:23.530Z,5.50
2023-03-27T02:59:57.071Z,5.50
2023-03-27T03:05:06.048Z,5.50
2023-03-27T03:10:11.654Z,5.50
2023-03-27T03:15:13.526Z,5.60
2023-03-27T03:20:16.755Z,5.60
2023-03-27T03:25:19.788Z,5.60
2023-03-27T03:30:21.544Z,5.60
2023-03-27T03:35:25.087Z,5.60
2023-03-27T03:40:27.240Z,5.60
2023-03-27T03:45:29.159Z,5.60
2023-03-27T03:50:30.924Z,5.60
2023-03-27T03:55:33.582Z,5.60
2023-03-27T04:00:38.693Z,5.60
2023-03-27T04:05:40.842Z,5.60
2023-03-27T04:10:42.627Z,5.50
2023-03-27T04:15:44.492Z,5.50
2023-03-27T04:20:54.342Z,5.60
2023-03-27T04:26:00.208Z,5.50
2023-03-27T04:31:06.568Z,5.30
2023-03-27T04:36:09.489Z,5.30
2023-03-27T04:41:11.416Z,5.30
2023-03-27T04:46:13.437Z,5.30
2023-03-27T04:51:15.472Z,5.20
2023-03-27T04:56:17.542Z,5.30
2023-03-27T05:01:19.399Z,5.40
2023-03-27T05:06:21.238Z,5.40
2023-03-27T05:11:23.010Z,5.30
2023-03-27T05:16:26.645Z,5.20
2023-03-27T05:21:28.653Z,5.30
2023-03-27T05:26:31.058Z,5.30
2023-03-27T05:31:36.250Z,5.20
2023-03-27T05:36:39.642Z,5.20
2023-03-27T05:41:41.493Z,5.20
2023-03-27T05:46:43.414Z,5.30
2023-03-27T05:51:47.001Z,5.30
2023-03-27T05:56:49.210Z,5.20
2023-03-27T06:01:51.952Z,5.10
2023-03-27T06:06:54.251Z,5.30
2023-03-27T06:11:57.468Z,5.20
2023-03-27T06:16:59.255Z,5.10
2023-03-27T06:22:01.293Z,5.10
2023-03-27T06:27:09.143Z,5.10
2023-03-27T06:32:12.310Z,5.10
2023-03-27T06:37:20.056Z,4.90
2023-03-27T06:42:23.234Z,4.90
2023-03-27T06:47:25.137Z,4.90
2023-03-27T06:52:27.092Z,5.00
2023-03-27T06:57:28.856Z,5.00
2023-03-27T07:02:32.091Z,5.10
2023-03-27T07:07:34.560Z,5.10
2023-03-27T07:12:36.700Z,5.30
2023-03-27T07:17:48.644Z,5.30
2023-03-27T07:22:51.435Z,5.40
2023-03-27T07:28:01.347Z,5.50
2023-03-27T07:33:04.394Z,5.40
2023-03-27T07:38:06.171Z,5.60
2023-03-27T07:43:08.204Z,5.90
2023-03-27T07:48:16.287Z,6.40
2023-03-27T07:53:34.042Z,6.30
2023-03-27T07:58:37.085Z,6.00
2023-03-27T08:03:39.520Z,6.30
2023-03-27T08:08:41.473Z,6.60
2023-03-27T08:13:43.238Z,6.50
2023-03-27T08:18:46.853Z,6.30
2023-03-27T08:23:48.772Z,6.40
2023-03-27T08:28:54.135Z,6.30
2023-03-27T08:33:56.215Z,6.40
2023-03-27T08:38:58.027Z,6.60
2023-03-27T08:44:03.514Z,6.60
2023-03-27T08:49:14.984Z,6.70
2023-03-27T08:54:24.619Z,6.80
2023-03-27T08:59:28.960Z,7.00
2023-03-27T09:04:56.526Z,7.10
2023-03-27T09:10:23.606Z,7.10
2023-03-27T09:15:31.737Z,7.10
2023-03-27T09:20:53.510Z,7.00
2023-03-27T09:26:00.126Z,7.20
2023-03-27T09:31:43.249Z,7.30
2023-03-27T09:36:45.092Z,7.50
2023-03-27T09:41:56.484Z,7.50
2023-03-27T09:47:09.965Z,8.00
2023-03-27T09:52:38.985Z,8.30
2023-03-27T09:57:41.116Z,8.30
2023-03-27T10:02:42.944Z,8.30
2023-03-27T10:07:45.141Z,8.10
2023-03-27T10:12:54.221Z,7.70
2023-03-27T10:17:56.871Z,8.30
2023-03-27T10:23:07.840Z,8.30
2023-03-27T10:28:19.605Z,8.50
2023-03-27T10:33:39.887Z,7.50
2023-03-27T10:38:43.627Z,6.50
2023-03-27T10:43:48.259Z,6.20
2023-03-27T10:49:18.215Z,6.20
2023-03-27T10:54:45.533Z,6.50
2023-03-27T10:59:56.226Z,6.60
2023-03-27T11:05:19.610Z,7.10
2023-03-27T11:10:34.728Z,7.20
2023-03-27T11:16:17.622Z,7.60
2023-03-27T11:21:26.032Z,8.00
2023-03-27T11:26:35.742Z,8.60
2023-03-27T11:31:46.536Z,8.50
2023-03-27T11:37:30.666Z,9.00
2023-03-27T11:42:37.019Z,9.20
2023-03-27T11:48:23.357Z,9.70
2023-03-27T11:53:49.710Z,9.50
2023-03-27T11:59:06.865Z,9.50
2023-03-27T12:04:33.066Z,10.00
2023-03-27T12:09:53.118Z,9.70
2023-03-27T12:15:37.177Z,8.90
2023-03-27T12:21:00.665Z,9.40
2023-03-27T12:26:12.733Z,9.70
2023-03-27T12:31:36.527Z,10.60
2023-03-27T12:36:44.607Z,10.10
2023-03-27T12:41:46.872Z,9.90
2023-03-27T12:47:29.509Z,9.40
2023-03-27T12:52:31.388Z,9.60
2023-03-27T12:57:42.907Z,9.90
2023-03-27T13:03:03.699Z,10.10
2023-03-27T13:08:34.209Z,10.80
2023-03-27T13:13:59.809Z,11.00
2023-03-27T13:19:39.214Z,11.10
2023-03-27T13:24:52.793Z,9.80
2023-03-27T13:29:55.027Z,10.60
2023-03-27T13:35:25.847Z,12.00
2023-03-27T13:40:36.869Z,12.30
2023-03-27T13:45:47.213Z,12.60
2023-03-27T13:51:15.215Z,12.50
2023-03-27T13:56:26.596Z,12.00
2023-03-27T14:02:18.541Z,11.80
2023-03-27T14:07:41.832Z,12.30
2023-03-27T14:13:13.022Z,12.90
2023-03-27T14:18:34.724Z,13.50
2023-03-27T14:23:47.244Z,11.70
2023-03-27T14:28:56.240Z,11.20
2023-03-27T14:34:09.814Z,11.90
2023-03-27T14:39:22.581Z,12.90
2023-03-27T14:44:26.078Z,11.80
2023-03-27T14:49:39.172Z,12.70
2023-03-27T14:54:54.254Z,12.80
2023-03-27T14:59:57.265Z,12.60
2023-03-27T15:05:09.855Z,13.60
2023-03-27T15:10:22.198Z,13.50
2023-03-27T15:15:25.610Z,11.10
2023-03-27T15:20:31.808Z,10.30
2023-03-27T15:25:42.869Z,10.60
2023-03-27T15:30:51.495Z,11.00
2023-03-27T15:35:56.706Z,10.90
2023-03-27T15:41:20.743Z,10.50
2023-03-27T15:46:34.960Z,11.60
2023-03-27T15:51:36.745Z,12.90
2023-03-27T15:56:43.015Z,12.90
2023-03-27T16:01:59.155Z,14.00
2023-03-27T16:07:17.957Z,14.20
2023-03-27T16:12:22.586Z,14.50
2023-03-27T16:17:36.581Z,14.20
2023-03-27T16:22:39.563Z,14.40
2023-03-27T16:27:50.015Z,14.40
2023-03-27T16:32:51.839Z,14.40
2023-03-27T16:37:54.516Z,14.80
2023-03-27T16:42:56.310Z,14.90
2023-03-27T16:47:58.232Z,14.10
2023-03-27T16:53:00.124Z,13.90
2023-03-27T16:58:03.085Z,13.70
2023-03-27T17:03:05.125Z,13.60
2023-03-27T17:08:07.529Z,13.20
2023-03-27T17:13:09.754Z,12.00
2023-03-27T17:18:11.514Z,11.20
2023-03-27T17:23:13.751Z,10.80
2023-03-27T17:28:16.152Z,10.50
2023-03-27T17:33:18.408Z,10.20
2023-03-27T17:38:22.589Z,9.90
2023-03-27T17:43:24.477Z,9.80
2023-03-27T17:48:26.250Z,9.50
2023-03-27T17:53:31.697Z,9.30
2023-03-27T17:58:34.524Z,9.30
2023-03-27T18:03:37.046Z,9.10
2023-03-27T18:08:39.059Z,8.80
2023-03-27T18:13:41.569Z,8.80
2023-03-27T18:18:44.143Z,8.50
2023-03-27T18:23:46.995Z,8.50
2023-03-27T18:28:49.012Z,8.40
2023-03-27T18:33:50.811Z,8.20
2023-03-27T18:38:52.646Z,8.10
2023-03-27T18:43:54.419Z,8.10
2023-03-27T18:48:57.052Z,8.00
2023-03-27T18:53:59.198Z,7.90
2023-03-27T18:59:01.187Z,7.90
2023-03-27T19:04:06.239Z,7.80
2023-03-27T19:09:08.921Z,7.80
2023-03-27T19:14:10.771Z,7.70
2023-03-27T19:19:12.742Z,7.70
2023-03-27T19:24:14.572Z,7.60
2023-03-27T19:29:16.580Z,7.30
2023-03-27T19:34:18.350Z,7.30
2023-03-27T19:39:20.278Z,7.40
2023-03-27T19:44:23.750Z,7.20
2023-03-27T19:49:26.555Z,7.00
2023-03-27T19:54:30.731Z,6.90
2023-03-27T19:59:33.079Z,6.60
2023-03-27T20:04:34.871Z,6.70
2023-03-27T20:09:37.179Z,6.30
2023-03-27T20:14:38.952Z,6.30
2023-03-27T20:19:48.729Z,6.20
2023-03-27T20:24:50.467Z,6.10
2023-03-27T20:29:52.246Z,6.00
2023-03-27T20:34:54.792Z,6.10
2023-03-27T20:39:57.152Z,5.90
2023-03-27T20:44:59.851Z,5.80
2023-03-27T20:50:03.659Z,5.80
2023-03-27T20:55:06.719Z,5.90
2023-03-27T21:00:09.156Z,5.80
2023-03-27T21:05:11.044Z,5.80
2023-03-27T21:10:12.828Z,5.60
2023-03-27T21:15:14.688Z,5.80
2023-03-27T21:20:16.744Z,5.80
2023-03-27T21:25:20.869Z,5.60
2023-03-27T21:30:23.559Z,5.50
2023-03-27T21:35:47.497Z,5.40
2023-03-27T21:40:49.417Z,5.50
2023-03-27T21:45:51.907Z,5.50
2023-03-27T21:51:02.311Z,5.60
2023-03-27T21:56:04.581Z,5.30
2023-03-27T22:01:06.910Z,5.40
2023-03-27T22:06:12.918Z,5.40
2023-03-27T22:11:15.506Z,5.20
2023-03-27T22:16:18.139Z,4.80
2023-03-27T22:21:29.352Z,4.60
2023-03-27T22:26:39.081Z,4.50
2023-03-27T22:31:41.149Z,4.30
2023-03-27T22:36:43.106Z,4.30
2023-03-27T22:41:44.876Z,4.30
2023-03-27T22:46:46.720Z,4.20
2023-03-27T22:51:48.497Z,4.30
2023-03-27T22:56:50.460Z,4.40
2023-03-27T23:01:52.630Z,4.20
2023-03-27T23:06:54.731Z,4.10
2023-03-27T23:11:56.533Z,3.90
2023-03-27T23:16:58.663Z,3.80
2023-03-27T23:22:00.459Z,3.70
2023-03-27T23:27:04.874Z,3.70
2023-03-27T23:32:06.770Z,3.40
2023-03-27T23:37:08.658Z,3.40
2023-03-27T23:42:10.502Z,3.80
2023-03-27T23:47:12.273Z,4.10
2023-03-27T23:52:14.042Z,4.00
2023-03-27T23:57:15.844Z,3.90
